createdAt,value
2019-02-27T00:00:29.375Z,4.23
2019-02-27T00:02:58.075Z,4.22
2019-02-27T00:05:26.874Z,4.24
2019-02-27T00:07:55.433Z,4.30
2019-02-27T00:10:24.232Z,4.30
2019-02-27T00:12:52.841Z,4.30
2019-02-27T00:15:21.470Z,4.27
2019-02-27T00:17:51.481Z,4.21
2019-02-27T00:20:20.472Z,4.17
2019-02-27T00:22:50.658Z,4.15
2019-02-27T00:25:19.386Z,4.14
2019-02-27T00:27:49.315Z,4.16
2019-02-27T00:30:18.510Z,4.09
2019-02-27T00:32:50.939Z,4.11
2019-02-27T00:35:17.395Z,4.11
2019-02-27T00:37:45.989Z,4.08
2019-02-27T00:40:14.707Z,4.13
2019-02-27T00:42:43.247Z,4.08
2019-02-27T00:45:12.347Z,4.08
2019-02-27T00:47:41.019Z,4.11
2019-02-27T00:50:10.202Z,4.13
2019-02-27T00:52:38.735Z,4.10
2019-02-27T00:55:08.499Z,4.10
2019-02-27T00:57:37.057Z,4.11
2019-02-27T01:00:09.449Z,4.15
2019-02-27T01:02:38.059Z,4.11
2019-02-27T01:05:09.187Z,4.13
2019-02-27T01:07:37.639Z,4.12
2019-02-27T01:10:12.032Z,4.11
2019-02-27T01:12:39.222Z,4.10
2019-02-27T01:15:13.114Z,4.08
2019-02-27T01:17:41.954Z,4.08
2019-02-27T01:20:12.901Z,4.08
2019-02-27T01:22:41.530Z,4.10
2019-02-27T01:25:10.439Z,4.09
2019-02-27T01:27:38.974Z,4.02
2019-02-27T01:30:15.464Z,4.01
2019-02-27T01:32:44.104Z,4.01
2019-02-27T01:35:17.443Z,4.03
2019-02-27T01:37:44.370Z,4.06
2019-02-27T01:40:17.215Z,4.05
2019-02-27T01:42:45.067Z,3.92
2019-02-27T01:45:20.676Z,3.84
2019-02-27T01:47:45.983Z,3.83
2019-02-27T01:50:26.277Z,3.74
2019-02-27T01:52:54.890Z,3.76
2019-02-27T01:55:23.536Z,3.75
2019-02-27T01:57:52.130Z,3.78
2019-02-27T02:00:22.989Z,3.73
2019-02-27T02:02:51.058Z,3.75
2019-02-27T02:05:19.716Z,3.71
2019-02-27T02:07:48.720Z,3.75
2019-02-27T02:10:17.615Z,3.82
2019-02-27T02:12:49.370Z,3.86
2019-02-27T02:15:36.096Z,3.88
2019-02-27T02:18:25.490Z,3.90
2019-02-27T02:21:23.602Z,3.88
2019-02-27T02:24:09.510Z,3.84
2019-02-27T02:26:59.217Z,3.83
2019-02-27T02:29:53.734Z,3.86
2019-02-27T02:32:40.251Z,3.84
2019-02-27T02:35:34.117Z,3.86
2019-02-27T02:38:17.445Z,3.80
2019-02-27T02:40:54.866Z,3.80
2019-02-27T02:43:55.200Z,3.76
2019-02-27T02:46:45.482Z,3.75
2019-02-27T02:49:23.950Z,3.80
2019-02-27T02:52:05.559Z,3.82
2019-02-27T02:55:13.500Z,3.78
2019-02-27T02:57:47.995Z,3.78
2019-02-27T03:00:25.880Z,3.81
2019-02-27T03:03:00.709Z,3.81
2019-02-27T03:05:35.891Z,3.82
2019-02-27T03:08:22.739Z,3.81
2019-02-27T03:11:19.793Z,3.76
2019-02-27T03:14:07.660Z,3.73
2019-02-27T03:16:48.286Z,3.73
2019-02-27T03:19:41.253Z,3.65
2019-02-27T03:22:10.989Z,3.62
2019-02-27T03:25:03.472Z,3.61
2019-02-27T03:27:34.737Z,3.59
2019-02-27T03:30:18.367Z,3.58
2019-02-27T03:33:10.802Z,3.54
2019-02-27T03:36:09.496Z,3.55
2019-02-27T03:39:01.275Z,3.46
2019-02-27T03:41:59.348Z,3.39
2019-02-27T03:44:40.959Z,3.34
2019-02-27T03:47:28.823Z,3.26
2019-02-27T03:50:15.808Z,3.23
2019-02-27T03:52:50.321Z,3.16
2019-02-27T03:55:32.876Z,3.15
2019-02-27T03:58:06.962Z,3.19
2019-02-27T04:00:43.097Z,3.17
2019-02-27T04:03:34.205Z,3.22
2019-02-27T04:06:26.714Z,3.25
2019-02-27T04:08:59.538Z,3.30
2019-02-27T04:11:28.369Z,3.32
2019-02-27T04:14:03.319Z,3.34
2019-02-27T04:16:29.394Z,3.34
2019-02-27T04:19:03.151Z,3.31
2019-02-27T04:21:28.227Z,3.32
2019-02-27T04:23:56.771Z,3.32
2019-02-27T04:26:25.420Z,3.31
2019-02-27T04:28:53.949Z,3.29
2019-02-27T04:31:22.490Z,3.31
2019-02-27T04:33:50.987Z,3.30
2019-02-27T04:36:20.040Z,3.25
2019-02-27T04:38:48.575Z,3.24
2019-02-27T04:41:18.123Z,3.22
2019-02-27T04:43:47.155Z,3.26
2019-02-27T04:46:15.651Z,3.30
2019-02-27T04:48:44.130Z,3.28
2019-02-27T04:51:16.899Z,3.35
2019-02-27T04:53:42.815Z,3.35
2019-02-27T04:56:11.350Z,3.33
2019-02-27T04:58:42.759Z,3.30
2019-02-27T05:01:10.183Z,3.31
2019-02-27T05:03:38.728Z,3.29
2019-02-27T05:06:07.219Z,3.30
2019-02-27T05:08:35.718Z,3.30
2019-02-27T05:11:04.320Z,3.28
2019-02-27T05:13:34.529Z,3.27
2019-02-27T05:16:03.232Z,3.24
2019-02-27T05:18:31.733Z,3.27
2019-02-27T05:21:00.265Z,3.24
2019-02-27T05:23:30.888Z,3.17
2019-02-27T05:25:59.048Z,3.21
2019-02-27T05:28:27.518Z,3.17
2019-02-27T05:30:56.147Z,3.13
2019-02-27T05:33:24.680Z,3.14
2019-02-27T05:35:57.044Z,3.14
2019-02-27T05:38:23.508Z,3.13
2019-02-27T05:40:52.071Z,3.14
2019-02-27T05:43:20.652Z,3.07
2019-02-27T05:45:49.216Z,3.02
2019-02-27T05:48:19.914Z,3.00
2019-02-27T05:50:48.038Z,3.01
2019-02-27T05:53:16.571Z,3.02
2019-02-27T05:55:45.132Z,3.06
2019-02-27T05:58:13.673Z,3.04
2019-02-27T06:00:42.319Z,2.98
2019-02-27T06:03:10.786Z,3.01
2019-02-27T06:05:39.396Z,3.06
2019-02-27T06:08:07.878Z,3.09
2019-02-27T06:10:36.474Z,3.08
2019-02-27T06:13:05.108Z,3.07
2019-02-27T06:15:33.723Z,3.07
2019-02-27T06:18:02.195Z,3.08
2019-02-27T06:20:30.762Z,3.09
2019-02-27T06:22:59.299Z,3.13
2019-02-27T06:27:55.322Z,3.15
2019-02-27T06:30:23.962Z,3.18
2019-02-27T06:32:52.429Z,3.21
2019-02-27T06:35:21.140Z,3.24
2019-02-27T06:37:50.762Z,3.21
2019-02-27T06:40:20.021Z,3.20
2019-02-27T06:42:53.435Z,3.25
2019-02-27T06:45:19.292Z,3.25
2019-02-27T06:47:48.219Z,3.22
2019-02-27T06:50:17.429Z,3.24
2019-02-27T06:52:46.066Z,3.29
2019-02-27T06:55:15.481Z,3.34
2019-02-27T06:57:44.199Z,3.35
2019-02-27T07:00:17.815Z,3.39
2019-02-27T07:02:46.445Z,3.42
2019-02-27T07:05:15.160Z,3.41
2019-02-27T07:07:43.804Z,3.39
2019-02-27T07:10:19.621Z,3.42
2019-02-27T07:12:45.141Z,3.46
2019-02-27T07:15:21.239Z,3.49
2019-02-27T07:17:49.817Z,3.48
2019-02-27T07:20:18.417Z,3.52
2019-02-27T07:22:47.120Z,3.59
2019-02-27T07:25:20.143Z,3.60
2019-02-27T07:27:48.674Z,3.59
2019-02-27T07:30:23.714Z,3.60
2019-02-27T07:32:51.956Z,3.63
2019-02-27T07:35:20.421Z,3.55
2019-02-27T07:37:48.896Z,3.61
2019-02-27T07:40:18.613Z,3.68
2019-02-27T07:42:47.347Z,3.74
2019-02-27T07:45:23.124Z,3.77
2019-02-27T07:47:51.723Z,3.84
2019-02-27T07:50:21.118Z,3.93
2019-02-27T07:52:51.814Z,3.99
2019-02-27T07:55:22.909Z,4.02
2019-02-27T07:57:50.356Z,4.07
2019-02-27T08:00:20.387Z,4.11
2019-02-27T08:02:48.986Z,4.15
2019-02-27T08:05:17.857Z,4.16
2019-02-27T08:07:49.114Z,4.24
2019-02-27T08:10:24.799Z,4.25
2019-02-27T08:12:56.440Z,4.25
2019-02-27T08:15:25.295Z,4.30
2019-02-27T08:17:57.435Z,4.36
2019-02-27T08:20:24.458Z,4.42
2019-02-27T08:22:53.076Z,4.46
2019-02-27T08:25:21.724Z,4.50
2019-02-27T08:27:50.328Z,4.55
2019-02-27T08:30:29.221Z,4.63
2019-02-27T08:32:57.827Z,4.73
2019-02-27T08:35:26.363Z,4.83
2019-02-27T08:38:02.204Z,4.92
2019-02-27T08:40:25.401Z,5.02
2019-02-27T08:42:53.829Z,5.14
2019-02-27T08:45:26.703Z,5.27
2019-02-27T08:47:52.717Z,5.32
2019-02-27T08:50:22.490Z,5.41
2019-02-27T08:52:51.873Z,5.53
2019-02-27T08:55:22.521Z,5.62
2019-02-27T08:57:56.018Z,5.81
2019-02-27T09:00:32.784Z,5.94
2019-02-27T09:03:02.927Z,6.00
2019-02-27T09:05:31.834Z,6.19
2019-02-27T09:08:00.524Z,6.79
2019-02-27T09:10:30.644Z,7.31
2019-02-27T09:13:05.487Z,7.57
2019-02-27T09:15:29.719Z,7.90
2019-02-27T09:17:59.268Z,8.25
2019-02-27T09:20:28.594Z,8.19
2019-02-27T09:22:57.085Z,8.49
2019-02-27T09:25:25.648Z,8.63
2019-02-27T09:27:54.179Z,9.25
2019-02-27T09:30:28.795Z,9.47
2019-02-27T09:32:54.139Z,9.53
2019-02-27T09:35:22.778Z,9.53
2019-02-27T09:37:52.047Z,9.52
2019-02-27T09:40:23.696Z,9.36
2019-02-27T09:42:53.050Z,9.36
2019-02-27T09:45:25.199Z,9.28
2019-02-27T09:47:53.852Z,9.16
2019-02-27T09:50:25.349Z,8.94
2019-02-27T09:52:53.920Z,8.76
2019-02-27T09:55:22.452Z,8.72
2019-02-27T09:57:51.085Z,8.89
2019-02-27T10:00:33.244Z,9.52
2019-02-27T10:03:02.053Z,9.47
2019-02-27T10:05:30.784Z,9.42
2019-02-27T10:07:59.346Z,9.73
2019-02-27T10:10:27.973Z,9.97
2019-02-27T10:12:56.540Z,10.07
2019-02-27T10:15:26.000Z,10.34
2019-02-27T10:17:54.880Z,10.76
2019-02-27T10:20:23.539Z,10.68
2019-02-27T10:22:53.292Z,10.97
2019-02-27T10:25:22.617Z,11.52
2019-02-27T10:27:51.252Z,11.61
2019-02-27T10:30:19.859Z,11.77
2019-02-27T10:32:48.390Z,12.36
2019-02-27T10:35:17.047Z,12.88
2019-02-27T10:37:50.263Z,13.63
2019-02-27T10:40:18.715Z,13.74
2019-02-27T10:42:50.326Z,14.11
2019-02-27T10:45:17.737Z,14.20
2019-02-27T10:47:46.273Z,14.75
2019-02-27T10:50:15.683Z,15.33
2019-02-27T10:52:44.298Z,15.78
2019-02-27T10:55:15.852Z,16.28
2019-02-27T10:57:44.453Z,17.35
2019-02-27T11:00:25.811Z,18.45
2019-02-27T11:02:54.454Z,17.91
2019-02-27T11:05:23.748Z,18.10
2019-02-27T11:07:53.031Z,18.76
2019-02-27T11:10:22.404Z,19.31
2019-02-27T11:12:51.042Z,19.78
2019-02-27T11:15:20.752Z,20.03
2019-02-27T11:17:49.557Z,20.19
2019-02-27T11:20:20.837Z,20.06
2019-02-27T11:22:48.628Z,19.43
2019-02-27T11:25:22.287Z,18.76
2019-02-27T11:27:49.782Z,18.26
2019-02-27T11:30:20.616Z,17.94
2019-02-27T11:32:49.242Z,17.81
2019-02-27T11:35:17.855Z,17.50
2019-02-27T11:37:47.509Z,16.85
2019-02-27T11:40:18.587Z,16.63
2019-02-27T11:42:47.214Z,16.53
2019-02-27T11:45:17.027Z,16.21
2019-02-27T11:47:48.034Z,15.84
2019-02-27T11:50:17.854Z,15.35
2019-02-27T11:52:49.038Z,14.49
2019-02-27T11:55:19.760Z,14.04
2019-02-27T11:57:48.431Z,13.79
2019-02-27T12:00:26.521Z,13.44
2019-02-27T12:02:55.327Z,13.11
2019-02-27T12:05:24.050Z,13.02
2019-02-27T12:07:52.787Z,13.02
2019-02-27T12:10:31.815Z,12.93
2019-02-27T12:13:01.290Z,12.86
2019-02-27T12:15:30.313Z,12.75
2019-02-27T12:18:00.475Z,12.70
2019-02-27T12:20:29.277Z,13.35
2019-02-27T12:22:57.887Z,14.77
2019-02-27T12:25:28.103Z,16.08
2019-02-27T12:27:57.073Z,16.91
2019-02-27T12:30:27.367Z,16.75
2019-02-27T12:32:57.046Z,16.44
2019-02-27T12:35:33.251Z,16.14
2019-02-27T12:38:07.191Z,15.86
2019-02-27T12:40:32.145Z,15.75
2019-02-27T12:43:00.671Z,15.56
2019-02-27T12:45:30.593Z,15.56
2019-02-27T12:47:59.222Z,15.75
2019-02-27T12:50:31.087Z,15.89
2019-02-27T12:52:59.290Z,16.02
2019-02-27T12:55:27.928Z,16.23
2019-02-27T12:57:56.569Z,16.25
2019-02-27T13:00:27.487Z,16.15
2019-02-27T13:02:56.191Z,15.94
2019-02-27T13:05:27.335Z,15.65
2019-02-27T13:07:55.159Z,15.23
2019-02-27T13:10:33.127Z,15.08
2019-02-27T13:12:57.928Z,15.63
2019-02-27T13:15:30.271Z,16.41
2019-02-27T13:17:58.872Z,16.61
2019-02-27T13:20:30.391Z,16.58
2019-02-27T13:23:03.848Z,16.54
2019-02-27T13:25:30.348Z,16.61
2019-02-27T13:27:59.057Z,16.66
2019-02-27T13:30:30.372Z,16.34
2019-02-27T13:33:01.364Z,16.55
2019-02-27T13:35:29.312Z,17.22
2019-02-27T13:37:57.942Z,17.48
2019-02-27T13:40:28.687Z,17.31
2019-02-27T13:42:57.439Z,17.60
2019-02-27T13:45:28.208Z,18.29
2019-02-27T13:47:58.805Z,18.90
2019-02-27T13:50:27.176Z,19.18
2019-02-27T13:52:55.774Z,19.36
2019-02-27T13:55:24.668Z,19.44
2019-02-27T13:57:53.262Z,19.68
2019-02-27T14:00:37.026Z,19.67
2019-02-27T14:03:05.631Z,18.91
2019-02-27T14:05:35.997Z,18.46
2019-02-27T14:08:04.602Z,17.63
2019-02-27T14:10:34.244Z,16.52
2019-02-27T14:13:02.816Z,15.64
2019-02-27T14:15:31.904Z,15.11
2019-02-27T14:18:00.621Z,14.69
2019-02-27T14:20:29.441Z,14.23
2019-02-27T14:22:58.240Z,13.59
2019-02-27T14:25:34.101Z,13.19
2019-02-27T14:28:02.813Z,12.99
2019-02-27T14:30:43.368Z,12.67
2019-02-27T14:33:11.825Z,12.29
2019-02-27T14:35:40.430Z,11.92
2019-02-27T14:38:09.020Z,11.54
2019-02-27T14:40:40.968Z,11.34
2019-02-27T14:43:08.099Z,11.13
2019-02-27T14:45:39.433Z,10.95
2019-02-27T14:48:07.048Z,10.78
2019-02-27T14:50:35.653Z,10.64
2019-02-27T14:53:04.286Z,10.46
2019-02-27T14:55:36.116Z,10.23
2019-02-27T14:58:03.247Z,10.15
2019-02-27T15:00:33.169Z,10.11
2019-02-27T15:03:01.779Z,10.06
2019-02-27T15:05:30.415Z,10.00
2019-02-27T15:07:59.014Z,9.99
2019-02-27T15:10:27.630Z,9.92
2019-02-27T15:12:56.269Z,9.79
2019-02-27T15:15:30.587Z,9.78
2019-02-27T15:17:59.596Z,9.73
2019-02-27T15:20:29.363Z,9.70
2019-02-27T15:22:58.185Z,9.58
2019-02-27T15:25:27.773Z,9.53
2019-02-27T15:27:58.677Z,9.47
2019-02-27T15:30:30.961Z,9.33
2019-02-27T15:33:03.808Z,9.27
2019-02-27T15:35:29.887Z,9.22
2019-02-27T15:37:58.726Z,8.98
2019-02-27T15:40:29.851Z,8.63
2019-02-27T15:42:58.621Z,8.39
2019-02-27T15:45:28.149Z,7.99
2019-02-27T15:47:57.063Z,7.65
2019-02-27T15:50:31.509Z,7.36
2019-02-27T15:53:00.106Z,7.11
2019-02-27T15:55:32.774Z,6.84
2019-02-27T15:57:59.078Z,6.63
2019-02-27T16:00:28.392Z,6.48
2019-02-27T16:02:56.914Z,6.22
2019-02-27T16:05:30.149Z,6.01
2019-02-27T16:07:55.891Z,5.85
2019-02-27T16:10:30.726Z,5.73
2019-02-27T16:13:01.110Z,5.60
2019-02-27T16:15:29.537Z,5.49
2019-02-27T16:17:58.058Z,5.38
2019-02-27T16:20:27.802Z,5.31
2019-02-27T16:22:56.409Z,5.18
2019-02-27T16:25:28.829Z,5.21
2019-02-27T16:27:57.468Z,5.18
2019-02-27T16:30:33.677Z,5.16
2019-02-27T16:33:02.322Z,5.13
2019-02-27T16:35:30.933Z,5.03
2019-02-27T16:37:59.537Z,5.00
2019-02-27T16:40:30.125Z,4.93
2019-02-27T16:42:58.667Z,4.89
2019-02-27T16:45:33.860Z,4.86
2019-02-27T16:48:00.546Z,4.76
2019-02-27T16:50:29.234Z,4.71
2019-02-27T16:52:57.827Z,4.72
2019-02-27T16:55:27.346Z,4.64
2019-02-27T16:57:57.470Z,4.48
2019-02-27T17:00:30.767Z,4.40
2019-02-27T17:02:59.654Z,4.35
2019-02-27T17:05:28.289Z,4.26
2019-02-27T17:08:00.400Z,4.19
2019-02-27T17:10:32.938Z,4.16
2019-02-27T17:13:01.552Z,4.09
2019-02-27T17:15:34.793Z,3.95
2019-02-27T17:18:00.473Z,3.84
2019-02-27T17:20:29.552Z,3.74
2019-02-27T17:22:58.345Z,3.64
2019-02-27T17:25:29.917Z,3.61
2019-02-27T17:27:57.027Z,3.64
2019-02-27T17:30:37.920Z,3.62
2019-02-27T17:33:06.837Z,3.47
2019-02-27T17:35:35.475Z,3.42
2019-02-27T17:38:04.107Z,3.39
2019-02-27T17:40:36.499Z,3.33
2019-02-27T17:43:03.937Z,3.28
2019-02-27T17:45:32.487Z,3.22
2019-02-27T17:48:01.077Z,3.17
2019-02-27T17:50:31.722Z,3.06
2019-02-27T17:53:00.065Z,2.99
2019-02-27T17:55:28.708Z,3.00
2019-02-27T17:57:58.507Z,2.97
2019-02-27T18:00:40.818Z,2.91
2019-02-27T18:03:09.285Z,2.86
2019-02-27T18:05:37.900Z,2.79
2019-02-27T18:08:06.898Z,2.75
2019-02-27T18:10:37.541Z,2.65
2019-02-27T18:13:06.407Z,2.58
2019-02-27T18:15:35.421Z,2.48
2019-02-27T18:18:07.556Z,2.36
2019-02-27T18:20:34.740Z,2.23
2019-02-27T18:23:03.587Z,2.20
2019-02-27T18:25:32.174Z,2.18
2019-02-27T18:28:00.885Z,2.12
2019-02-27T18:30:29.710Z,2.07
2019-02-27T18:33:01.006Z,2.07
2019-02-27T18:35:29.771Z,2.03
2019-02-27T18:37:58.671Z,2.06
2019-02-27T18:40:27.336Z,1.98
2019-02-27T18:42:56.671Z,1.98
2019-02-27T18:45:28.357Z,2.01
2019-02-27T18:47:58.671Z,2.07
2019-02-27T18:50:27.313Z,2.02
2019-02-27T18:52:55.994Z,2.03
2019-02-27T18:55:29.215Z,2.05
2019-02-27T18:57:54.974Z,2.06
2019-02-27T19:00:25.017Z,2.05
2019-02-27T19:03:07.870Z,2.07
2019-02-27T19:05:38.237Z,2.09
2019-02-27T19:08:07.243Z,2.13
2019-02-27T19:10:41.271Z,2.12
2019-02-27T19:13:06.220Z,2.12
2019-02-27T19:15:34.873Z,2.14
2019-02-27T19:18:06.240Z,2.13
2019-02-27T19:20:39.640Z,2.15
2019-02-27T19:23:08.256Z,2.21
2019-02-27T19:25:36.860Z,2.20
2019-02-27T19:28:05.881Z,2.19
2019-02-27T19:30:34.817Z,2.18
2019-02-27T19:33:03.574Z,2.15
2019-02-27T19:35:32.210Z,2.14
2019-02-27T19:38:00.819Z,2.13
2019-02-27T19:40:30.513Z,2.15
2019-02-27T19:43:04.816Z,2.13
2019-02-27T19:45:35.917Z,2.16
2019-02-27T19:48:04.035Z,2.19
2019-02-27T19:50:32.568Z,2.20
2019-02-27T19:53:05.171Z,2.23
2019-02-27T19:55:31.548Z,2.22
2019-02-27T19:58:00.160Z,2.18
2019-02-27T20:00:33.852Z,2.21
2019-02-27T20:03:01.685Z,2.27
2019-02-27T20:05:30.464Z,2.32
2019-02-27T20:07:59.069Z,2.35
2019-02-27T20:10:30.949Z,2.37
2019-02-27T20:12:58.154Z,2.40
2019-02-27T20:15:27.663Z,2.44
2019-02-27T20:17:56.507Z,2.42
2019-02-27T20:20:25.920Z,2.42
2019-02-27T20:22:55.353Z,2.36
2019-02-27T20:25:25.931Z,2.23
2019-02-27T20:27:58.026Z,2.23
2019-02-27T20:30:25.441Z,2.29
2019-02-27T20:32:54.386Z,2.31
2019-02-27T20:35:22.997Z,2.34
2019-02-27T20:37:51.641Z,2.33
2019-02-27T20:40:23.047Z,2.32
2019-02-27T20:42:54.837Z,2.32
2019-02-27T20:45:26.504Z,2.32
2019-02-27T20:47:57.655Z,2.34
2019-02-27T20:50:42.033Z,2.37
2019-02-27T20:53:12.813Z,2.38
2019-02-27T20:55:43.288Z,2.32
2019-02-27T20:58:16.308Z,2.32
2019-02-27T21:00:44.567Z,2.31
2019-02-27T21:03:14.847Z,2.29
2019-02-27T21:05:43.419Z,2.27
2019-02-27T21:08:11.898Z,2.26
2019-02-27T21:10:42.026Z,2.39
2019-02-27T21:13:15.638Z,2.39
2019-02-27T21:15:42.444Z,2.39
2019-02-27T21:18:11.080Z,2.30
2019-02-27T21:20:42.162Z,2.27
2019-02-27T21:23:10.027Z,2.29
2019-02-27T21:25:38.667Z,2.25
2019-02-27T21:28:07.945Z,2.19
2019-02-27T21:30:36.972Z,2.12
2019-02-27T21:33:08.239Z,2.05
2019-02-27T21:35:36.130Z,1.99
2019-02-27T21:38:04.745Z,1.96
2019-02-27T21:40:36.144Z,1.92
2019-02-27T21:43:03.712Z,1.88
2019-02-27T21:45:37.251Z,1.83
2019-02-27T21:48:02.803Z,1.80
2019-02-27T21:50:31.348Z,1.80
2019-02-27T21:52:59.837Z,1.74
2019-02-27T21:55:28.583Z,1.63
2019-02-27T21:57:58.096Z,1.56
2019-02-27T22:00:30.250Z,1.49
2019-02-27T22:03:03.713Z,1.43
2019-02-27T22:05:29.728Z,1.37
2019-02-27T22:07:58.341Z,1.30
2019-02-27T22:10:27.145Z,1.18
2019-02-27T22:12:55.752Z,1.13
2019-02-27T22:15:31.063Z,1.06
2019-02-27T22:17:59.666Z,1.02
2019-02-27T22:20:28.477Z,0.93
2019-02-27T22:22:57.017Z,0.90
2019-02-27T22:25:30.124Z,0.79
2019-02-27T22:27:58.293Z,0.75
2019-02-27T22:30:26.278Z,0.75
2019-02-27T22:32:54.931Z,0.68
2019-02-27T22:35:23.551Z,0.61
2019-02-27T22:37:52.765Z,0.55
2019-02-27T22:40:22.680Z,0.52
2019-02-27T22:42:51.405Z,0.52
2019-02-27T22:45:20.705Z,0.49
2019-02-27T22:47:50.203Z,0.42
2019-02-27T22:50:19.944Z,0.39
2019-02-27T22:52:54.217Z,0.38
2019-02-27T22:55:19.151Z,0.31
2019-02-27T22:57:47.711Z,0.30
2019-02-27T23:00:51.316Z,0.27
2019-02-27T23:03:25.002Z,0.20
2019-02-27T23:05:53.616Z,0.14
2019-02-27T23:08:23.211Z,0.10
2019-02-27T23:10:52.810Z,0.07
2019-02-27T23:13:21.459Z,0.07
2019-02-27T23:15:50.057Z,0.04
2019-02-27T23:18:18.685Z,-0.02
2019-02-27T23:20:47.227Z,-0.03
2019-02-27T23:23:15.837Z,0.00
2019-02-27T23:25:46.539Z,-0.03
2019-02-27T23:28:14.844Z,-0.03
2019-02-27T23:30:46.985Z,-0.04
2019-02-27T23:33:13.851Z,-0.03
2019-02-27T23:35:42.474Z,-0.02
2019-02-27T23:38:11.035Z,-0.02
2019-02-27T23:40:39.576Z,0.01
2019-02-27T23:43:08.215Z,-0.04
2019-02-27T23:45:36.885Z,-0.05
2019-02-27T23:48:05.588Z,-0.04
2019-02-27T23:50:34.197Z,-0.03
2019-02-27T23:53:02.754Z,-0.04
2019-02-27T23:55:31.404Z,-0.06
2019-02-27T23:57:59.879Z,-0.12
